createdAt,value
2022-11-05T00:03:40.360Z,12
2022-11-05T00:09:53.178Z,12
2022-11-05T00:16:02.330Z,14
2022-11-05T00:21:55.169Z,15
2022-11-05T00:28:00.060Z,15
2022-11-05T00:33:44.792Z,14
2022-11-05T00:39:53.644Z,16
2022-11-05T00:45:59.446Z,14
2022-11-05T00:51:46.990Z,15
2022-11-05T00:57:43.001Z,13
2022-11-05T01:03:59.039Z,14
2022-11-05T01:09:57.930Z,12
2022-11-05T01:18:36.336Z,12
2022-11-05T01:24:36.240Z,12
2022-11-05T01:30:41.575Z,11
2022-11-05T01:36:36.345Z,12
2022-11-05T01:42:36.460Z,10
2022-11-05T01:48:36.038Z,10
2022-11-05T01:54:36.699Z,11
2022-11-05T02:00:49.352Z,12
2022-11-05T02:06:36.315Z,12
2022-11-05T02:12:36.322Z,12
2022-11-05T02:18:36.059Z,10
2022-11-05T02:24:35.824Z,10
2022-11-05T02:30:35.811Z,12
2022-11-05T02:36:35.915Z,10
2022-11-05T02:42:36.233Z,10
2022-11-05T02:48:35.945Z,11
2022-11-05T02:54:36.117Z,11
2022-11-05T03:00:43.574Z,12
2022-11-05T03:06:36.091Z,12
2022-11-05T03:12:35.981Z,12
2022-11-05T03:18:36.013Z,12
2022-11-05T03:24:36.239Z,13
2022-11-05T03:30:55.284Z,13
2022-11-05T03:36:58.566Z,13
2022-11-05T03:42:55.565Z,13
2022-11-05T03:48:48.289Z,14
2022-11-05T03:54:39.870Z,14
2022-11-05T04:00:51.659Z,12
2022-11-05T04:06:37.729Z,13
2022-11-05T04:12:42.282Z,13
2022-11-05T04:18:52.538Z,12
2022-11-05T04:24:45.563Z,12
2022-11-05T04:31:05.475Z,12
2022-11-05T04:36:49.563Z,13
2022-11-05T04:42:41.803Z,12
2022-11-05T04:48:59.077Z,12
2022-11-05T04:54:52.644Z,11
2022-11-05T05:01:05.725Z,11
2022-11-05T05:07:01.433Z,11
2022-11-05T05:12:40.686Z,12
2022-11-05T05:18:47.522Z,11
2022-11-05T05:24:48.593Z,11
2022-11-05T05:30:58.775Z,11
2022-11-05T05:36:47.431Z,12
2022-11-05T05:42:53.859Z,11
2022-11-05T05:48:46.714Z,11
2022-11-05T05:54:44.729Z,11
2022-11-05T06:01:19.363Z,12
2022-11-05T06:06:57.659Z,12
2022-11-05T06:12:52.944Z,11
2022-11-05T06:18:47.907Z,12
2022-11-05T06:24:44.925Z,12
2022-11-05T06:30:54.331Z,11
2022-11-05T06:36:57.272Z,11
2022-11-05T06:42:40.169Z,11
2022-11-05T06:48:39.915Z,11
2022-11-05T06:54:39.326Z,12
2022-11-05T07:01:03.581Z,12
2022-11-05T07:07:10.660Z,11
2022-11-05T07:12:55.045Z,12
2022-11-05T07:18:56.272Z,13
2022-11-05T07:24:50.704Z,13
2022-11-05T07:31:04.393Z,13
2022-11-05T07:36:42.324Z,14
2022-11-05T07:42:49.981Z,13
2022-11-05T07:48:48.941Z,13
2022-11-05T07:54:54.551Z,14
2022-11-05T08:00:57.132Z,14
2022-11-05T08:06:50.674Z,14
2022-11-05T08:12:44.335Z,15
2022-11-05T08:18:41.835Z,15
2022-11-05T08:24:41.859Z,14
2022-11-05T08:30:55.200Z,12
2022-11-05T08:36:51.444Z,13
2022-11-05T08:42:42.566Z,10
2022-11-05T08:48:58.251Z,12
2022-11-05T08:54:48.082Z,11
2022-11-05T09:01:03.382Z,11
2022-11-05T09:07:03.658Z,9
2022-11-05T09:12:55.077Z,8
2022-11-05T09:18:56.521Z,8
2022-11-05T09:25:06.561Z,9
2022-11-05T09:30:57.971Z,7
2022-11-05T09:36:55.119Z,8
2022-11-05T09:42:52.775Z,7
2022-11-05T09:48:49.228Z,8
2022-11-05T09:54:53.979Z,7
2022-11-05T10:01:13.968Z,7
2022-11-05T10:06:54.020Z,7
2022-11-05T10:12:39.068Z,6
2022-11-05T10:18:40.412Z,5
2022-11-05T10:24:43.927Z,5
2022-11-05T10:30:58.045Z,5
2022-11-05T10:36:56.085Z,5
2022-11-05T10:42:49.153Z,5
2022-11-05T10:48:43.401Z,5
2022-11-05T10:54:43.602Z,5
2022-11-05T11:00:56.400Z,3
2022-11-05T11:06:41.979Z,4
2022-11-05T11:12:40.999Z,4
2022-11-05T11:18:42.420Z,3
2022-11-05T11:24:38.499Z,3
2022-11-05T11:31:00.230Z,3
2022-11-05T11:36:55.803Z,3
2022-11-05T11:42:40.653Z,2
2022-11-05T11:48:46.619Z,2
2022-11-05T11:54:46.471Z,2
2022-11-05T12:00:58.604Z,2
2022-11-05T12:06:36.589Z,2
2022-11-05T12:12:36.326Z,2
2022-11-05T12:18:37.135Z,2
2022-11-05T12:24:36.399Z,2
2022-11-05T12:30:43.733Z,2
2022-11-05T12:36:37.934Z,2
2022-11-05T12:42:39.409Z,2
2022-11-05T12:48:37.536Z,2
2022-11-05T12:54:36.288Z,2
2022-11-05T13:01:01.397Z,2
2022-11-05T13:06:38.622Z,2
2022-11-05T13:12:38.806Z,2
2022-11-05T13:18:41.900Z,2
2022-11-05T13:24:47.379Z,2
2022-11-05T13:30:57.210Z,2
2022-11-05T13:36:43.723Z,2
2022-11-05T13:42:41.946Z,3
2022-11-05T13:48:38.087Z,3
2022-11-05T14:00:36.289Z,3
2022-11-05T14:06:36.581Z,2
2022-11-05T14:12:36.851Z,2
2022-11-05T14:18:36.448Z,2
2022-11-05T14:24:36.133Z,2
2022-11-05T14:30:40.808Z,2
2022-11-05T14:36:36.240Z,2
2022-11-05T14:42:36.269Z,2
2022-11-05T14:48:36.801Z,3
2022-11-05T14:54:36.263Z,3
2022-11-05T15:00:37.813Z,3
2022-11-05T15:06:36.309Z,3
2022-11-05T15:12:36.304Z,3
2022-11-05T15:18:36.249Z,3
2022-11-05T15:24:36.629Z,3
2022-11-05T15:30:40.282Z,3
2022-11-05T15:36:36.879Z,3
2022-11-05T15:42:36.545Z,3
2022-11-05T15:48:36.468Z,3
2022-11-05T15:54:36.961Z,3
2022-11-05T16:00:38.873Z,3
2022-11-05T16:06:36.432Z,5
2022-11-05T16:12:36.713Z,4
2022-11-05T16:18:36.296Z,4
2022-11-05T16:24:36.755Z,3
2022-11-05T16:30:44.775Z,3
2022-11-05T16:36:37.729Z,4
2022-11-05T16:42:37.037Z,5
2022-11-05T16:48:36.551Z,4
2022-11-05T16:54:36.645Z,4
2022-11-05T17:00:55.613Z,4
2022-11-05T17:06:36.787Z,4
2022-11-05T17:12:36.468Z,4
2022-11-05T17:18:36.950Z,4
2022-11-05T17:24:36.462Z,4
2022-11-05T17:30:55.714Z,5
2022-11-05T17:36:36.554Z,5
2022-11-05T17:42:36.867Z,6
2022-11-05T17:48:36.725Z,5
2022-11-05T17:54:36.865Z,6
2022-11-05T18:00:45.361Z,6
2022-11-05T18:06:36.773Z,6
2022-11-05T18:12:36.859Z,7
2022-11-05T18:18:37.285Z,7
2022-11-05T18:24:36.932Z,6
2022-11-05T18:30:42.889Z,7
2022-11-05T18:36:36.698Z,7
2022-11-05T18:42:36.610Z,7
2022-11-05T18:48:37.050Z,7
2022-11-05T18:54:37.425Z,8
2022-11-05T19:00:52.690Z,8
2022-11-05T19:06:36.922Z,8
2022-11-05T19:12:36.531Z,8
2022-11-05T19:18:37.689Z,8
2022-11-05T19:24:36.652Z,8
2022-11-05T19:30:56.768Z,8
2022-11-05T19:36:36.688Z,8
2022-11-05T19:42:36.724Z,7
2022-11-05T19:48:37.294Z,8
2022-11-05T19:54:36.872Z,7
2022-11-05T20:00:52.655Z,9
2022-11-05T20:06:36.789Z,8
2022-11-05T20:12:37.555Z,8
2022-11-05T20:18:37.496Z,9
2022-11-05T20:24:36.623Z,8
2022-11-05T20:30:45.015Z,8
2022-11-05T20:36:36.838Z,8
2022-11-05T20:42:36.739Z,8
2022-11-05T20:48:37.121Z,9
2022-11-05T20:54:37.090Z,9
2022-11-05T21:00:55.009Z,8
2022-11-05T21:06:37.377Z,9
2022-11-05T21:12:36.873Z,9
2022-11-05T21:18:37.297Z,10
2022-11-05T21:24:36.764Z,9
2022-11-05T21:30:52.173Z,9
2022-11-05T21:36:36.929Z,10
2022-11-05T21:42:36.855Z,9
2022-11-05T21:48:37.752Z,9
2022-11-05T21:54:36.736Z,9
2022-11-05T22:00:46.468Z,9
2022-11-05T22:06:36.915Z,10
2022-11-05T22:12:36.747Z,9
2022-11-05T22:18:36.988Z,9
2022-11-05T22:24:36.753Z,9
2022-11-05T22:30:55.981Z,8
2022-11-05T22:36:36.645Z,9
2022-11-05T22:42:37.473Z,8
2022-11-05T22:48:37.685Z,9
2022-11-05T22:54:39.446Z,9
2022-11-05T23:00:51.755Z,9
2022-11-05T23:06:36.668Z,9
2022-11-05T23:12:36.360Z,8
2022-11-05T23:18:36.558Z,9
2022-11-05T23:24:36.584Z,9
2022-11-05T23:30:51.673Z,8
2022-11-05T23:36:37.094Z,7
2022-11-05T23:42:36.604Z,7
2022-11-05T23:48:36.580Z,6
2022-11-05T23:54:36.890Z,5
